createdAt,value
2022-08-03T03:42:53.834Z,1.70
2022-08-03T03:45:58.658Z,1.55
2022-08-03T03:49:01.292Z,1.77
2022-08-03T03:52:08.605Z,1.40
2022-08-03T03:55:16.313Z,1.50
2022-08-03T03:58:22.126Z,1.90
2022-08-03T04:01:27.767Z,1.40
2022-08-03T04:04:51.292Z,1.75
2022-08-03T04:08:28.846Z,1.90
2022-08-03T04:11:43.532Z,1.80
2022-08-03T04:14:49.411Z,1.92
2022-08-03T04:17:56.015Z,1.40
2022-08-03T04:21:08.595Z,2.25
2022-08-03T04:24:15.477Z,2.10
2022-08-03T04:27:21.368Z,1.83
2022-08-03T04:30:27.495Z,2.00
2022-08-03T04:33:33.396Z,1.87
2022-08-03T04:36:44.692Z,1.90
2022-08-03T04:39:49.524Z,1.98
2022-08-03T04:42:55.791Z,1.92
2022-08-03T04:45:59.510Z,2.08
2022-08-03T04:49:03.321Z,1.70
2022-08-03T04:52:09.999Z,2.00
2022-08-03T04:55:13.127Z,1.77
2022-08-03T04:58:15.796Z,1.70
2022-08-03T05:01:20.565Z,2.42
2022-08-03T05:04:23.123Z,2.22
2022-08-03T05:07:25.939Z,1.70
2022-08-03T05:10:28.619Z,2.47
2022-08-03T05:13:31.469Z,2.00
2022-08-03T05:16:34.132Z,2.08
2022-08-03T05:22:39.291Z,2.10
2022-08-03T05:25:49.745Z,2.25
2022-08-03T05:28:53.508Z,1.85
2022-08-03T05:34:59.580Z,2.03
2022-08-03T05:38:28.798Z,2.25
2022-08-03T05:41:37.657Z,2.28
2022-08-03T05:44:42.126Z,1.85
2022-08-03T05:47:45.346Z,1.80
2022-08-03T05:50:48.336Z,2.17
2022-08-03T05:53:50.885Z,2.03
2022-08-03T05:56:53.776Z,1.80
2022-08-03T05:59:58.787Z,1.90
2022-08-03T06:03:02.470Z,2.00
2022-08-03T06:06:05.398Z,2.15
2022-08-03T06:09:08.006Z,2.05
2022-08-03T06:12:14.076Z,2.05
2022-08-03T06:15:18.706Z,2.20
2022-08-03T06:18:21.619Z,2.40
2022-08-03T06:21:24.084Z,1.95
2022-08-03T06:24:30.022Z,2.15
2022-08-03T06:27:37.237Z,1.67
2022-08-03T06:30:41.827Z,2.15
2022-08-03T06:34:31.327Z,1.80
2022-08-03T06:37:07.299Z,1.90
2022-08-03T06:40:11.649Z,2.37
2022-08-03T06:43:16.782Z,2.25
2022-08-03T06:49:22.663Z,1.80
2022-08-03T06:55:42.517Z,2.08
2022-08-03T06:58:46.977Z,2.17
2022-08-03T07:01:50.159Z,2.53
2022-08-03T07:04:52.705Z,2.20
2022-08-03T07:07:57.216Z,2.40
2022-08-03T07:10:59.872Z,2.67
2022-08-03T07:14:02.764Z,2.37
2022-08-03T07:20:15.323Z,2.40
2022-08-03T07:23:19.114Z,2.80
2022-08-03T07:26:22.400Z,2.70
2022-08-03T07:32:31.478Z,2.50
2022-08-03T07:35:34.294Z,2.30
2022-08-03T07:38:37.156Z,2.58
2022-08-03T07:44:45.394Z,2.60
2022-08-03T07:47:53.215Z,2.58
2022-08-03T07:50:56.909Z,2.37
2022-08-03T07:57:03.843Z,2.70
2022-08-03T08:00:12.679Z,2.97
2022-08-03T08:03:16.048Z,2.58
2022-08-03T08:06:18.634Z,2.70
2022-08-03T08:09:21.418Z,2.75
2022-08-03T08:15:26.641Z,2.50
2022-08-03T08:18:32.539Z,2.45
2022-08-03T08:22:02.052Z,2.40
2022-08-03T08:25:04.453Z,2.37
2022-08-03T08:28:31.872Z,2.40
2022-08-03T08:34:32.759Z,3.05
2022-08-03T08:37:35.612Z,2.42
2022-08-03T08:40:41.599Z,2.45
2022-08-03T08:43:44.187Z,2.75
2022-08-03T08:46:48.111Z,3.00
2022-08-03T08:50:09.204Z,2.20
2022-08-03T08:53:17.617Z,3.20
2022-08-03T08:56:25.644Z,2.55
2022-08-03T08:59:47.671Z,2.60
2022-08-03T09:05:56.208Z,2.37
2022-08-03T09:08:59.051Z,2.30
2022-08-03T09:12:27.183Z,2.20
2022-08-03T09:15:26.763Z,2.70
2022-08-03T09:18:32.555Z,2.25
2022-08-03T09:21:35.746Z,2.22
2022-08-03T09:25:14.969Z,2.30
2022-08-03T09:28:58.154Z,2.85
2022-08-03T09:31:46.560Z,3.35
2022-08-03T09:34:54.229Z,2.72
2022-08-03T09:38:16.765Z,2.42
2022-08-03T09:41:19.815Z,2.30
2022-08-03T09:44:35.832Z,2.15
2022-08-03T09:47:45.061Z,2.50
2022-08-03T09:51:13.377Z,2.30
2022-08-03T09:54:27.683Z,2.17
2022-08-03T09:57:33.377Z,2.53
2022-08-03T10:01:04.184Z,2.67
2022-08-03T10:04:16.948Z,2.37
2022-08-03T10:07:24.667Z,2.00
2022-08-03T10:10:43.469Z,1.55
2022-08-03T10:13:46.201Z,1.85
2022-08-03T10:16:49.640Z,1.83
2022-08-03T10:19:52.487Z,1.85
2022-08-03T10:22:56.396Z,2.12
2022-08-03T10:26:02.952Z,2.17
2022-08-03T10:29:12.393Z,1.90
2022-08-03T10:32:26.281Z,2.05
2022-08-03T10:35:30.130Z,1.95
2022-08-03T10:38:49.582Z,2.00
2022-08-03T10:41:54.657Z,1.60
2022-08-03T10:45:06.581Z,1.55
2022-08-03T10:48:10.521Z,1.60
2022-08-03T10:51:13.727Z,1.87
2022-08-03T10:55:11.052Z,2.00
2022-08-03T10:58:13.758Z,1.80
2022-08-03T11:01:58.100Z,1.70
2022-08-03T11:05:42.103Z,2.00
2022-08-03T11:11:48.923Z,1.80
2022-08-03T11:14:53.667Z,1.85
2022-08-03T11:18:11.289Z,1.70
2022-08-03T11:21:14.679Z,1.67
2022-08-03T11:24:51.531Z,1.60
2022-08-03T11:28:28.399Z,1.70
2022-08-03T11:31:49.309Z,1.80
2022-08-03T11:35:13.322Z,1.60
2022-08-03T11:38:15.987Z,1.60
2022-08-03T11:41:43.311Z,1.30
2022-08-03T11:44:49.043Z,1.30
2022-08-03T11:47:55.818Z,1.05
2022-08-03T11:50:58.835Z,1.40
2022-08-03T11:54:03.988Z,1.37
2022-08-03T11:57:06.867Z,1.30
2022-08-03T12:00:32.965Z,1.08
2022-08-03T12:03:36.346Z,1.20
2022-08-03T12:06:57.238Z,1.00
2022-08-03T12:10:12.243Z,1.17
2022-08-03T12:14:35.673Z,1.37
2022-08-03T12:16:38.554Z,0.80
2022-08-03T12:19:44.724Z,1.10
2022-08-03T12:22:48.051Z,0.98
2022-08-03T12:25:50.944Z,1.20
2022-08-03T12:28:53.882Z,1.17
2022-08-03T12:31:56.799Z,1.08
2022-08-03T12:35:01.667Z,1.12
2022-08-03T12:38:06.774Z,1.15
2022-08-03T12:41:13.674Z,1.08
2022-08-03T12:44:16.427Z,1.27
2022-08-03T12:47:19.591Z,1.17
2022-08-03T12:50:26.587Z,1.25
2022-08-03T12:53:30.260Z,1.12
2022-08-03T12:56:33.113Z,1.20
2022-08-03T12:59:53.242Z,1.27
2022-08-03T13:06:26.861Z,1.27
2022-08-03T13:09:32.684Z,1.30
2022-08-03T13:12:49.680Z,1.35
2022-08-03T13:15:54.725Z,1.50
2022-08-03T13:18:57.926Z,1.35
2022-08-03T13:22:04.684Z,1.48
2022-08-03T13:25:08.527Z,1.42
2022-08-03T13:28:14.328Z,1.50
2022-08-03T13:31:17.500Z,1.50
2022-08-03T13:34:23.422Z,1.80
2022-08-03T13:37:27.255Z,1.67
2022-08-03T13:40:36.745Z,1.70
2022-08-03T13:43:44.680Z,1.80
2022-08-03T13:46:49.583Z,1.70
2022-08-03T13:50:00.818Z,1.70
2022-08-03T13:53:04.816Z,1.70
2022-08-03T13:56:07.639Z,1.77
2022-08-03T13:59:11.086Z,2.00
2022-08-03T14:02:14.117Z,1.90
2022-08-03T14:05:20.058Z,1.70
2022-08-03T14:08:23.028Z,1.90
2022-08-03T14:11:26.108Z,1.55
2022-08-03T14:14:48.797Z,1.80
2022-08-03T14:17:51.686Z,1.87
2022-08-03T14:20:56.439Z,2.05
2022-08-03T14:24:00.863Z,2.00
2022-08-03T14:27:09.021Z,1.90
2022-08-03T14:30:13.273Z,1.85
2022-08-03T14:33:16.078Z,1.85
2022-08-03T14:36:19.136Z,1.70
2022-08-03T14:39:23.114Z,1.73
2022-08-03T14:42:26.178Z,1.50
2022-08-03T14:45:28.721Z,1.40
2022-08-03T14:50:29.293Z,1.80
2022-08-03T14:51:54.207Z,1.30
2022-08-03T14:54:57.396Z,1.40
2022-08-03T14:58:02.881Z,1.50
2022-08-03T15:02:04.438Z,1.42
2022-08-03T15:04:30.146Z,1.70
2022-08-03T15:07:33.144Z,1.80
2022-08-03T15:10:40.280Z,1.60
2022-08-03T15:13:43.594Z,1.70
2022-08-03T15:16:46.171Z,1.95
2022-08-03T15:20:03.303Z,1.95
